createdAt,value
2023-03-12T00:01:15.742Z,-0.09
2023-03-12T00:03:42.358Z,-0.09
2023-03-12T00:06:11.100Z,-0.07
2023-03-12T00:08:37.840Z,-0.05
2023-03-12T00:11:13.277Z,-0.03
2023-03-12T00:13:40.369Z,-0.01
2023-03-12T00:16:10.499Z,-0.02
2023-03-12T00:18:37.235Z,0.01
2023-03-12T00:21:04.007Z,0.01
2023-03-12T00:23:30.909Z,0.03
2023-03-12T00:26:01.212Z,0.04
2023-03-12T00:28:27.941Z,0.03
2023-03-12T00:30:57.120Z,0.03
2023-03-12T00:33:25.701Z,0.05
2023-03-12T00:35:52.696Z,0.05
2023-03-12T00:38:19.711Z,0.06
2023-03-12T00:40:46.215Z,0.06
2023-03-12T00:43:12.774Z,0.08
2023-03-12T00:45:39.238Z,0.06
2023-03-12T00:48:06.152Z,0.07
2023-03-12T00:50:32.667Z,0.07
2023-03-12T00:52:59.246Z,0.10
2023-03-12T00:55:25.802Z,0.11
2023-03-12T00:57:52.383Z,0.11
2023-03-12T01:00:18.938Z,0.10
2023-03-12T01:02:45.584Z,0.09
2023-03-12T01:05:13.300Z,0.10
2023-03-12T01:07:40.576Z,0.08
2023-03-12T01:10:08.769Z,0.07
2023-03-12T01:12:35.551Z,0.05
2023-03-12T01:15:02.042Z,0.05
2023-03-12T01:17:28.510Z,0.03
2023-03-12T01:19:55.092Z,0.01
2023-03-12T01:22:21.642Z,0.03
2023-03-12T01:24:48.265Z,0.02
2023-03-12T01:27:14.752Z,0.02
2023-03-12T01:29:41.223Z,0.02
2023-03-12T01:32:08.375Z,0.02
2023-03-12T01:34:35.584Z,0.01
2023-03-12T01:37:02.471Z,-0.01
2023-03-12T01:39:29.089Z,-0.02
2023-03-12T01:41:55.665Z,0.01
2023-03-12T01:44:22.190Z,0.03
2023-03-12T01:46:48.727Z,0.04
2023-03-12T01:49:33.045Z,0.06
2023-03-12T01:52:03.670Z,0.08
2023-03-12T01:54:50.366Z,0.08
2023-03-12T01:57:23.792Z,0.11
2023-03-12T01:59:54.014Z,0.14
2023-03-12T02:02:26.565Z,0.16
2023-03-12T02:05:21.934Z,0.17
2023-03-12T02:07:48.886Z,0.18
2023-03-12T02:10:16.274Z,0.22
2023-03-12T02:12:43.314Z,0.24
2023-03-12T02:15:10.759Z,0.25
2023-03-12T02:17:39.412Z,0.26
2023-03-12T02:20:22.415Z,0.28
2023-03-12T02:23:00.859Z,0.29
2023-03-12T02:25:35.168Z,0.31
2023-03-12T02:28:05.339Z,0.30
2023-03-12T02:30:33.987Z,0.30
2023-03-12T02:33:05.800Z,0.33
2023-03-12T02:35:32.889Z,0.35
2023-03-12T02:37:59.514Z,0.38
2023-03-12T02:40:41.254Z,0.37
2023-03-12T02:43:10.181Z,0.39
2023-03-12T02:45:38.692Z,0.40
2023-03-12T02:48:08.711Z,0.41
2023-03-12T02:50:35.624Z,0.43
2023-03-12T02:53:03.329Z,0.45
2023-03-12T02:55:29.817Z,0.50
2023-03-12T02:57:56.246Z,0.53
2023-03-12T03:00:22.794Z,0.55
2023-03-12T03:02:52.106Z,0.58
2023-03-12T03:05:20.423Z,0.59
2023-03-12T03:07:47.022Z,0.59
2023-03-12T03:10:15.426Z,0.61
2023-03-12T03:12:41.825Z,0.62
2023-03-12T03:15:09.555Z,0.63
2023-03-12T03:17:36.227Z,0.64
2023-03-12T03:20:06.842Z,0.65
2023-03-12T03:22:33.311Z,0.67
2023-03-12T03:24:59.872Z,0.67
2023-03-12T03:27:26.357Z,0.68
2023-03-12T03:29:53.505Z,0.68
2023-03-12T03:32:20.246Z,0.69
2023-03-12T03:34:47.044Z,0.71
2023-03-12T03:37:13.936Z,0.74
2023-03-12T03:39:40.455Z,0.76
2023-03-12T03:42:08.448Z,0.78
2023-03-12T03:44:35.477Z,0.78
2023-03-12T03:47:02.509Z,0.80
2023-03-12T03:49:28.981Z,0.83
2023-03-12T03:51:55.764Z,0.86
2023-03-12T03:54:31.026Z,0.87
2023-03-12T03:56:57.781Z,0.91
2023-03-12T03:59:24.332Z,0.93
2023-03-12T04:01:51.278Z,0.94
2023-03-12T04:04:20.147Z,0.96
2023-03-12T04:06:46.590Z,0.97
2023-03-12T04:09:13.888Z,0.97
2023-03-12T04:11:40.743Z,0.98
2023-03-12T04:14:08.616Z,0.98
2023-03-12T04:16:37.970Z,1.02
2023-03-12T04:19:05.074Z,1.06
2023-03-12T04:21:31.841Z,1.10
2023-03-12T04:23:58.385Z,1.16
2023-03-12T04:26:29.146Z,1.18
2023-03-12T04:28:56.403Z,1.18
2023-03-12T04:31:23.183Z,1.20
2023-03-12T04:33:50.843Z,1.22
2023-03-12T04:36:19.392Z,1.21
2023-03-12T04:38:48.388Z,1.22
2023-03-12T04:41:17.434Z,1.23
2023-03-12T04:43:48.813Z,1.26
2023-03-12T04:46:16.911Z,1.28
2023-03-12T04:48:44.498Z,1.27
2023-03-12T04:51:12.312Z,1.27
2023-03-12T04:53:40.500Z,1.25
2023-03-12T04:56:09.481Z,1.25
2023-03-12T04:58:37.014Z,1.24
2023-03-12T05:01:05.553Z,1.24
2023-03-12T05:03:32.932Z,1.24
2023-03-12T05:06:00.600Z,1.23
2023-03-12T05:08:27.230Z,1.22
2023-03-12T05:10:53.753Z,1.23
2023-03-12T05:13:22.419Z,1.22
2023-03-12T05:15:51.912Z,1.23
2023-03-12T05:18:21.338Z,1.23
2023-03-12T05:20:57.417Z,1.23
2023-03-12T05:23:24.208Z,1.25
2023-03-12T05:25:50.746Z,1.27
2023-03-12T05:28:17.306Z,1.28
2023-03-12T05:30:43.794Z,1.29
2023-03-12T05:33:10.328Z,1.30
2023-03-12T05:35:36.981Z,1.31
2023-03-12T05:38:03.899Z,1.32
2023-03-12T05:40:31.176Z,1.33
2023-03-12T05:42:59.022Z,1.33
2023-03-12T05:45:27.120Z,1.33
2023-03-12T05:47:55.800Z,1.36
2023-03-12T05:50:22.474Z,1.38
2023-03-12T05:52:48.976Z,1.40
2023-03-12T05:55:15.566Z,1.42
2023-03-12T05:57:42.644Z,1.46
2023-03-12T06:00:10.155Z,1.47
2023-03-12T06:02:50.745Z,1.49
2023-03-12T06:05:17.199Z,1.52
2023-03-12T06:07:43.939Z,1.53
2023-03-12T06:10:10.960Z,1.54
2023-03-12T06:12:37.437Z,1.55
2023-03-12T06:15:05.233Z,1.55
2023-03-12T06:17:32.401Z,1.56
2023-03-12T06:19:59.019Z,1.56
2023-03-12T06:22:25.811Z,1.56
2023-03-12T06:24:52.436Z,1.56
2023-03-12T06:27:19.190Z,1.56
2023-03-12T06:29:47.191Z,1.56
2023-03-12T06:32:14.677Z,1.56
2023-03-12T06:34:41.261Z,1.55
2023-03-12T06:37:07.770Z,1.54
2023-03-12T06:39:34.530Z,1.53
2023-03-12T06:42:01.099Z,1.52
2023-03-12T06:44:27.571Z,1.52
2023-03-12T06:46:54.129Z,1.54
2023-03-12T06:49:20.618Z,1.53
2023-03-12T06:51:47.053Z,1.50
2023-03-12T06:54:13.736Z,1.48
2023-03-12T06:56:40.677Z,1.50
2023-03-12T06:59:07.529Z,1.51
2023-03-12T07:01:34.072Z,1.49
2023-03-12T07:04:00.499Z,1.50
2023-03-12T07:06:27.177Z,1.51
2023-03-12T07:08:53.722Z,1.52
2023-03-12T07:11:20.210Z,1.51
2023-03-12T07:13:46.749Z,1.52
2023-03-12T07:16:13.337Z,1.55
2023-03-12T07:18:39.862Z,1.55
2023-03-12T07:21:06.429Z,1.56
2023-03-12T07:23:32.881Z,1.57
2023-03-12T07:25:59.440Z,1.58
2023-03-12T07:28:25.902Z,1.61
2023-03-12T07:30:52.393Z,1.63
2023-03-12T07:33:21.504Z,1.64
2023-03-12T07:35:50.984Z,1.65
2023-03-12T07:38:18.799Z,1.68
2023-03-12T07:40:45.438Z,1.71
2023-03-12T07:43:12.746Z,1.72
2023-03-12T07:45:40.881Z,1.74
2023-03-12T07:48:08.223Z,1.75
2023-03-12T07:50:35.723Z,1.76
2023-03-12T07:53:02.301Z,1.79
2023-03-12T07:55:28.907Z,1.82
2023-03-12T07:57:58.414Z,1.84
2023-03-12T08:00:26.604Z,1.86
2023-03-12T08:02:53.607Z,1.88
2023-03-12T08:05:20.831Z,1.91
2023-03-12T08:07:47.702Z,1.94
2023-03-12T08:10:14.415Z,1.97
2023-03-12T08:12:40.956Z,1.99
2023-03-12T08:15:08.877Z,2.01
2023-03-12T08:17:35.508Z,2.06
2023-03-12T08:20:02.205Z,2.09
2023-03-12T08:22:28.639Z,2.10
2023-03-12T08:24:55.181Z,2.15
2023-03-12T08:27:21.610Z,2.17
2023-03-12T08:29:48.282Z,2.20
2023-03-12T08:32:15.020Z,2.24
2023-03-12T08:34:41.579Z,2.27
2023-03-12T08:37:08.105Z,2.33
2023-03-12T08:39:34.853Z,2.37
2023-03-12T08:42:09.615Z,2.40
2023-03-12T08:44:36.318Z,2.46
2023-03-12T08:47:03.170Z,2.48
2023-03-12T08:49:46.546Z,2.53
2023-03-12T08:52:19.202Z,2.58
2023-03-12T08:54:46.346Z,2.64
2023-03-12T08:57:13.254Z,2.68
2023-03-12T08:59:44.137Z,2.74
2023-03-12T09:02:12.538Z,2.80
2023-03-12T09:04:39.314Z,2.82
2023-03-12T09:07:06.155Z,2.88
2023-03-12T09:09:32.808Z,2.93
2023-03-12T09:11:59.482Z,3.01
2023-03-12T09:15:01.393Z,3.10
2023-03-12T09:17:12.521Z,3.18
2023-03-12T09:19:39.840Z,3.30
2023-03-12T09:22:06.397Z,3.41
2023-03-12T09:24:33.015Z,3.49
2023-03-12T09:26:59.564Z,3.54
2023-03-12T09:29:26.098Z,3.57
2023-03-12T09:31:52.752Z,3.64
2023-03-12T09:34:19.377Z,3.77
2023-03-12T09:36:45.852Z,3.86
2023-03-12T09:39:12.786Z,3.93
2023-03-12T09:41:41.621Z,4.05
2023-03-12T09:44:16.593Z,4.16
2023-03-12T09:47:01.702Z,4.22
2023-03-12T09:49:51.088Z,4.31
2023-03-12T09:52:27.968Z,4.36
2023-03-12T09:55:08.028Z,4.42
2023-03-12T09:57:34.773Z,4.47
2023-03-12T10:00:01.694Z,4.56
2023-03-12T10:02:41.039Z,4.63
2023-03-12T10:05:38.005Z,4.69
2023-03-12T10:08:27.828Z,4.78
2023-03-12T10:11:05.814Z,4.91
2023-03-12T10:13:38.044Z,4.97
2023-03-12T10:16:30.634Z,5.03
2023-03-12T10:19:23.662Z,5.09
2023-03-12T10:21:58.953Z,5.23
2023-03-12T10:25:02.924Z,5.30
2023-03-12T10:27:32.995Z,5.33
2023-03-12T10:30:01.121Z,5.40
2023-03-12T10:32:42.126Z,5.47
2023-03-12T10:35:21.552Z,5.52
2023-03-12T10:37:57.876Z,5.56
2023-03-12T10:40:30.681Z,5.63
2023-03-12T10:42:57.485Z,5.77
2023-03-12T10:45:34.641Z,5.85
2023-03-12T10:48:08.632Z,5.95
2023-03-12T10:50:37.492Z,6.01
2023-03-12T10:53:14.743Z,6.09
2023-03-12T10:55:41.583Z,6.25
2023-03-12T10:58:22.648Z,6.45
2023-03-12T11:00:58.216Z,6.50
2023-03-12T11:03:26.121Z,6.57
2023-03-12T11:05:59.709Z,6.71
2023-03-12T11:08:30.698Z,6.79
2023-03-12T11:10:59.525Z,6.83
2023-03-12T11:13:30.597Z,6.89
2023-03-12T11:15:59.868Z,6.95
2023-03-12T11:18:37.125Z,7.01
2023-03-12T11:21:10.069Z,7.09
2023-03-12T11:23:43.742Z,7.14
2023-03-12T11:26:22.133Z,7.20
2023-03-12T11:29:18.219Z,7.27
2023-03-12T11:32:00.130Z,7.32
2023-03-12T11:34:28.667Z,7.39
2023-03-12T11:37:18.245Z,7.46
2023-03-12T11:40:12.950Z,7.50
2023-03-12T11:43:03.582Z,7.54
2023-03-12T11:45:44.727Z,7.55
2023-03-12T11:48:23.113Z,7.56
2023-03-12T11:51:34.777Z,7.58
2023-03-12T11:54:19.039Z,7.61
2023-03-12T11:56:51.403Z,7.64
2023-03-12T11:59:51.668Z,7.70
2023-03-12T12:02:55.161Z,7.75
2023-03-12T12:05:45.265Z,7.82
2023-03-12T12:08:37.552Z,7.88
2023-03-12T12:11:24.941Z,7.93
2023-03-12T12:14:30.109Z,8.04
2023-03-12T12:17:32.811Z,8.13
2023-03-12T12:20:31.175Z,8.12
2023-03-12T12:23:01.455Z,8.15
2023-03-12T12:25:38.149Z,8.17
2023-03-12T12:28:10.667Z,8.31
2023-03-12T12:31:05.248Z,8.35
2023-03-12T12:33:41.030Z,8.45
2023-03-12T12:36:11.329Z,8.59
2023-03-12T12:38:41.944Z,8.69
2023-03-12T12:41:13.855Z,8.79
2023-03-12T12:43:44.134Z,8.89
2023-03-12T12:46:15.172Z,8.91
2023-03-12T12:48:53.125Z,8.93
2023-03-12T12:51:32.548Z,8.95
2023-03-12T12:54:02.769Z,8.96
2023-03-12T12:56:39.268Z,9.00
2023-03-12T12:59:09.561Z,9.12
2023-03-12T13:01:37.577Z,9.24
2023-03-12T13:04:10.523Z,9.27
2023-03-12T13:06:55.549Z,9.31
2023-03-12T13:09:35.163Z,9.36
2023-03-12T13:12:11.743Z,9.43
2023-03-12T13:14:43.894Z,9.42
2023-03-12T13:17:26.924Z,9.44
2023-03-12T13:20:01.648Z,9.44
2023-03-12T13:22:37.512Z,9.43
2023-03-12T13:25:18.143Z,9.44
2023-03-12T13:27:46.187Z,9.46
2023-03-12T13:30:47.982Z,9.47
2023-03-12T13:33:18.351Z,9.45
2023-03-12T13:36:03.577Z,9.43
2023-03-12T13:38:53.601Z,9.40
2023-03-12T13:41:40.213Z,9.41
2023-03-12T13:44:36.904Z,9.42
2023-03-12T13:47:27.525Z,9.60
2023-03-12T13:50:15.323Z,9.79
2023-03-12T13:52:48.409Z,10.02
2023-03-12T13:55:22.353Z,10.18
2023-03-12T13:58:09.632Z,10.27
2023-03-12T14:00:59.004Z,10.37
2023-03-12T14:03:30.882Z,10.41
2023-03-12T14:06:06.534Z,10.50
2023-03-12T14:08:57.368Z,10.61
2023-03-12T14:12:04.777Z,10.69
2023-03-12T14:14:54.359Z,10.84
2023-03-12T14:17:27.184Z,10.90
2023-03-12T14:20:18.664Z,10.85
2023-03-12T14:22:52.157Z,10.76
2023-03-12T14:25:39.363Z,10.72
2023-03-12T14:28:15.353Z,10.64
2023-03-12T14:30:55.229Z,10.61
2023-03-12T14:33:22.557Z,10.61
2023-03-12T14:36:06.445Z,10.63
2023-03-12T14:38:38.986Z,10.63
2023-03-12T14:41:13.463Z,10.67
2023-03-12T14:43:42.234Z,10.71
2023-03-12T14:46:23.028Z,10.72
2023-03-12T14:48:52.093Z,10.75
2023-03-12T14:51:30.508Z,10.77
2023-03-12T14:54:02.511Z,10.83
2023-03-12T14:56:35.232Z,10.79
2023-03-12T14:59:21.381Z,10.76
2023-03-12T15:01:48.173Z,10.74
2023-03-12T15:04:18.077Z,10.78
2023-03-12T15:06:46.417Z,10.82
2023-03-12T15:09:28.161Z,10.76
2023-03-12T15:11:58.606Z,10.67
2023-03-12T15:14:29.237Z,10.66
2023-03-12T15:16:57.940Z,10.60
2023-03-12T15:19:35.437Z,10.58
2023-03-12T15:22:03.499Z,10.59
2023-03-12T15:24:37.961Z,10.60
2023-03-12T15:27:19.907Z,10.53
2023-03-12T15:29:46.274Z,10.50
2023-03-12T15:32:20.383Z,10.49
2023-03-12T15:34:47.949Z,10.48
2023-03-12T15:37:33.682Z,10.46
2023-03-12T15:40:24.639Z,10.46
2023-03-12T15:42:52.818Z,10.49
2023-03-12T15:45:23.137Z,10.49
2023-03-12T15:47:52.435Z,10.50
2023-03-12T15:50:22.597Z,10.46
2023-03-12T15:53:18.469Z,10.38
2023-03-12T15:55:58.741Z,10.29
2023-03-12T15:58:34.661Z,10.25
2023-03-12T16:01:16.251Z,10.22
2023-03-12T16:03:45.512Z,10.19
2023-03-12T16:06:17.903Z,10.20
2023-03-12T16:08:48.501Z,10.20
2023-03-12T16:11:21.844Z,10.19
2023-03-12T16:13:50.826Z,10.20
2023-03-12T16:16:17.433Z,10.20
2023-03-12T16:18:46.744Z,10.16
2023-03-12T16:21:13.307Z,10.13
2023-03-12T16:23:39.856Z,10.11
2023-03-12T16:26:06.887Z,10.09
2023-03-12T16:28:35.583Z,10.04
2023-03-12T16:31:02.993Z,10.01
2023-03-12T16:33:29.779Z,9.99
2023-03-12T16:35:57.068Z,9.97
2023-03-12T16:38:23.703Z,9.97
2023-03-12T16:40:51.983Z,9.93
2023-03-12T16:43:21.316Z,9.89
2023-03-12T16:45:49.463Z,9.87
2023-03-12T16:48:18.526Z,9.87
2023-03-12T16:50:48.452Z,9.84
2023-03-12T16:53:14.882Z,9.83
2023-03-12T16:55:56.508Z,9.79
2023-03-12T16:58:25.200Z,9.75
2023-03-12T17:00:53.500Z,9.74
2023-03-12T17:03:33.338Z,9.72
2023-03-12T17:06:01.276Z,9.66
2023-03-12T17:08:27.827Z,9.66
2023-03-12T17:10:57.604Z,9.64
2023-03-12T17:13:26.390Z,9.62
2023-03-12T17:15:53.259Z,9.59
2023-03-12T17:18:21.084Z,9.57
2023-03-12T17:20:49.252Z,9.53
2023-03-12T17:23:15.693Z,9.51
2023-03-12T17:25:44.319Z,9.48
2023-03-12T17:28:11.142Z,9.45
2023-03-12T17:30:37.957Z,9.41
2023-03-12T17:33:11.268Z,9.36
2023-03-12T17:35:38.041Z,9.33
2023-03-12T17:38:04.626Z,9.29
2023-03-12T17:40:31.510Z,9.25
2023-03-12T17:42:57.959Z,9.21
2023-03-12T17:45:24.848Z,9.17
2023-03-12T17:47:51.304Z,9.15
2023-03-12T17:50:17.801Z,9.12
2023-03-12T17:52:44.664Z,9.08
2023-03-12T17:55:11.976Z,9.07
2023-03-12T17:57:39.051Z,9.06
2023-03-12T18:00:12.544Z,9.05
2023-03-12T18:02:42.595Z,9.04
2023-03-12T18:05:11.321Z,9.03
2023-03-12T18:07:38.437Z,9.03
2023-03-12T18:10:13.757Z,9.03
2023-03-12T18:12:40.829Z,9.01
2023-03-12T18:15:09.477Z,8.99
2023-03-12T18:17:36.069Z,8.98
2023-03-12T18:20:09.620Z,8.98
2023-03-12T18:22:38.341Z,8.98
2023-03-12T18:25:06.216Z,9.00
2023-03-12T18:27:32.739Z,9.01
2023-03-12T18:29:59.191Z,9.02
2023-03-12T18:32:25.825Z,9.02
2023-03-12T18:34:53.148Z,9.01
2023-03-12T18:37:20.293Z,9.01
2023-03-12T18:39:47.962Z,9.02
2023-03-12T18:42:14.424Z,9.02
2023-03-12T18:44:40.967Z,9.02
2023-03-12T18:47:07.502Z,9.02
2023-03-12T18:49:33.988Z,9.04
2023-03-12T18:52:00.465Z,9.02
2023-03-12T18:54:26.990Z,9.02
2023-03-12T18:56:54.264Z,9.01
2023-03-12T18:59:21.300Z,9.01
2023-03-12T19:01:47.830Z,9.00
2023-03-12T19:04:17.754Z,9.01
2023-03-12T19:06:51.303Z,8.99
2023-03-12T19:09:18.532Z,8.98
2023-03-12T19:11:47.472Z,8.97
2023-03-12T19:14:14.266Z,8.97
2023-03-12T19:16:40.896Z,8.96
2023-03-12T19:19:07.364Z,8.95
2023-03-12T19:21:33.757Z,8.94
2023-03-12T19:24:00.357Z,8.94
2023-03-12T19:26:26.860Z,8.91
2023-03-12T19:28:53.342Z,8.92
2023-03-12T19:31:19.902Z,8.92
2023-03-12T19:33:46.457Z,8.92
2023-03-12T19:36:12.965Z,8.91
2023-03-12T19:38:39.640Z,8.91
2023-03-12T19:41:08.931Z,8.90
2023-03-12T19:43:36.912Z,8.91
2023-03-12T19:46:04.038Z,8.91
2023-03-12T19:48:30.667Z,8.91
2023-03-12T19:50:57.393Z,8.91
2023-03-12T19:53:24.628Z,8.92
2023-03-12T19:55:51.652Z,8.92
2023-03-12T19:58:18.106Z,8.92
2023-03-12T20:00:44.965Z,8.92
2023-03-12T20:03:11.574Z,8.93
2023-03-12T20:05:38.308Z,8.93
2023-03-12T20:08:04.994Z,8.92
2023-03-12T20:10:32.289Z,8.90
2023-03-12T20:12:58.792Z,8.90
2023-03-12T20:15:25.438Z,8.89
2023-03-12T20:17:54.609Z,8.88
2023-03-12T20:20:21.167Z,8.88
2023-03-12T20:22:47.582Z,8.88
2023-03-12T20:25:14.108Z,8.86
2023-03-12T20:27:40.593Z,8.85
2023-03-12T20:30:07.940Z,8.83
2023-03-12T20:32:34.902Z,8.83
2023-03-12T20:35:01.510Z,8.81
2023-03-12T20:37:28.194Z,8.82
2023-03-12T20:39:54.661Z,8.82
2023-03-12T20:42:21.138Z,8.82
2023-03-12T20:44:47.696Z,8.80
2023-03-12T20:47:14.138Z,8.80
2023-03-12T20:49:40.618Z,8.79
2023-03-12T20:52:07.073Z,8.77
2023-03-12T20:54:33.614Z,8.76
2023-03-12T20:57:00.042Z,8.75
2023-03-12T20:59:26.573Z,8.77
2023-03-12T21:01:53.015Z,8.77
2023-03-12T21:04:19.447Z,8.77
2023-03-12T21:06:47.549Z,8.77
2023-03-12T21:09:14.952Z,8.76
2023-03-12T21:11:41.535Z,8.77
2023-03-12T21:14:08.131Z,8.76
2023-03-12T21:16:34.778Z,8.76
2023-03-12T21:19:01.250Z,8.76
2023-03-12T21:21:27.703Z,8.75
2023-03-12T21:23:54.310Z,8.75
2023-03-12T21:26:21.845Z,8.75
2023-03-12T21:28:48.440Z,8.75
2023-03-12T21:31:17.221Z,8.73
2023-03-12T21:33:43.953Z,8.73
2023-03-12T21:36:12.990Z,8.71
2023-03-12T21:38:40.854Z,8.71
2023-03-12T21:41:16.550Z,8.71
2023-03-12T21:43:43.850Z,8.71
2023-03-12T21:46:13.125Z,8.71
2023-03-12T21:48:40.126Z,8.69
2023-03-12T21:51:09.570Z,8.69
2023-03-12T21:53:37.137Z,8.67
2023-03-12T21:56:05.666Z,8.65
2023-03-12T21:58:33.157Z,8.64
2023-03-12T22:01:11.653Z,8.62
2023-03-12T22:03:38.964Z,8.62
2023-03-12T22:06:06.414Z,8.60
2023-03-12T22:08:34.290Z,8.60
2023-03-12T22:11:00.736Z,8.60
2023-03-12T22:13:27.276Z,8.64
2023-03-12T22:15:59.594Z,8.64
2023-03-12T22:18:27.148Z,8.61
2023-03-12T22:20:55.618Z,8.58
2023-03-12T22:23:23.459Z,8.57
2023-03-12T22:25:50.442Z,8.57
2023-03-12T22:28:17.506Z,8.55
2023-03-12T22:30:44.240Z,8.54
2023-03-12T22:33:11.446Z,8.52
2023-03-12T22:35:45.269Z,8.51
2023-03-12T22:38:12.165Z,8.49
2023-03-12T22:40:39.529Z,8.48
2023-03-12T22:43:05.971Z,8.47
2023-03-12T22:45:33.374Z,8.47
2023-03-12T22:48:00.039Z,8.45
2023-03-12T22:50:26.646Z,8.44
2023-03-12T22:52:53.167Z,8.43
2023-03-12T22:55:19.734Z,8.41
2023-03-12T22:57:46.343Z,8.40
2023-03-12T23:00:16.405Z,8.38
2023-03-12T23:02:42.886Z,8.39
2023-03-12T23:05:10.272Z,8.39
2023-03-12T23:07:37.030Z,8.38
2023-03-12T23:10:04.932Z,8.38
2023-03-12T23:12:32.167Z,8.37
2023-03-12T23:14:58.664Z,8.35
2023-03-12T23:17:25.452Z,8.34
2023-03-12T23:19:51.958Z,8.33
2023-03-12T23:22:18.536Z,8.33
2023-03-12T23:24:45.016Z,8.33
2023-03-12T23:27:11.600Z,8.31
2023-03-12T23:29:38.057Z,8.31
2023-03-12T23:32:04.876Z,8.29
2023-03-12T23:34:33.988Z,8.28
2023-03-12T23:37:00.578Z,8.26
2023-03-12T23:39:30.232Z,8.24
2023-03-12T23:41:57.604Z,8.23
2023-03-12T23:44:24.804Z,8.21
2023-03-12T23:46:51.379Z,8.21
2023-03-12T23:49:17.831Z,8.19
2023-03-12T23:51:44.405Z,8.17
2023-03-12T23:54:10.888Z,8.16
2023-03-12T23:56:39.353Z,8.15
2023-03-12T23:59:07.928Z,8.15
